createdAt,value
2023-02-17T07:22:15.108Z,4.10
2023-02-17T07:24:42.526Z,3.80
2023-02-17T07:27:10.822Z,3.80
2023-02-17T07:29:38.019Z,3.20
2023-02-17T07:32:06.543Z,3.38
2023-02-17T07:34:33.594Z,3.70
2023-02-17T07:37:00.575Z,3.60
2023-02-17T07:39:27.606Z,3.95
2023-02-17T07:41:54.665Z,3.80
2023-02-17T07:44:21.792Z,3.70
2023-02-17T07:46:48.775Z,3.25
2023-02-17T07:49:16.063Z,3.03
2023-02-17T07:51:43.351Z,2.85
2023-02-17T07:54:10.509Z,3.05
2023-02-17T07:56:37.766Z,3.30
2023-02-17T07:59:04.830Z,2.92
2023-02-17T08:01:31.842Z,2.90
2023-02-17T08:04:02.075Z,3.10
2023-02-17T08:06:29.159Z,2.83
2023-02-17T08:09:15.075Z,3.10
2023-02-17T08:12:01.341Z,3.00
2023-02-17T08:14:29.482Z,2.58
2023-02-17T08:16:57.118Z,2.80
2023-02-17T08:19:27.219Z,2.90
2023-02-17T08:21:57.266Z,2.67
2023-02-17T08:24:24.726Z,2.70
2023-02-17T08:26:51.983Z,2.80
2023-02-17T08:29:20.388Z,3.10
2023-02-17T08:31:48.958Z,3.10
2023-02-17T08:34:16.165Z,3.13
2023-02-17T08:36:43.267Z,2.95
2023-02-17T08:39:15.179Z,3.20
2023-02-17T08:41:42.724Z,3.30
2023-02-17T08:44:14.615Z,3.00
2023-02-17T08:46:46.287Z,3.00
2023-02-17T08:55:24.656Z,3.03
2023-02-17T08:57:51.793Z,3.20
2023-02-17T09:00:19.014Z,3.10
2023-02-17T09:02:46.059Z,3.10
2023-02-17T09:05:15.039Z,2.75
2023-02-17T09:07:42.160Z,3.30
2023-02-17T09:10:09.535Z,3.00
2023-02-17T09:12:36.617Z,3.17
2023-02-17T09:15:03.803Z,3.38
2023-02-17T09:17:31.042Z,3.38
2023-02-17T09:28:38.478Z,2.72
2023-02-17T09:31:16.928Z,3.10
2023-02-17T09:33:44.238Z,3.15
2023-02-17T09:36:12.925Z,2.80
2023-02-17T09:42:28.858Z,3.10
2023-02-17T09:45:04.029Z,3.10
2023-02-17T09:47:54.666Z,3.17
2023-02-17T09:50:40.754Z,3.08
2023-02-17T09:53:18.798Z,3.05
2023-02-17T09:55:48.562Z,3.00
2023-02-17T09:58:18.678Z,3.22
2023-02-17T10:00:51.131Z,3.00
2023-02-17T10:03:18.706Z,2.90
2023-02-17T10:06:12.135Z,2.83
2023-02-17T10:08:57.550Z,3.03
2023-02-17T10:11:30.795Z,3.40
2023-02-17T10:13:59.662Z,2.97
2023-02-17T10:16:32.459Z,2.80
2023-02-17T10:22:29.063Z,3.05
2023-02-17T10:24:57.843Z,2.72
2023-02-17T10:27:25.781Z,2.78
2023-02-17T10:30:11.832Z,2.80
2023-02-17T10:33:00.885Z,2.70
2023-02-17T10:35:33.753Z,2.70
2023-02-17T10:38:15.184Z,2.83
2023-02-17T10:40:42.519Z,2.75
2023-02-17T10:43:10.050Z,2.90
2023-02-17T10:45:57.815Z,2.95
2023-02-17T10:48:29.204Z,2.58
2023-02-17T10:50:59.022Z,2.28
2023-02-17T10:53:29.629Z,2.40
2023-02-17T10:56:02.471Z,2.40
2023-02-17T10:58:48.162Z,2.25
2023-02-17T11:01:15.208Z,2.42
2023-02-17T11:03:42.407Z,2.50
2023-02-17T11:06:15.727Z,2.50
2023-02-17T11:09:00.478Z,2.13
2023-02-17T11:11:30.477Z,1.92
2023-02-17T11:14:02.308Z,2.00
2023-02-17T11:16:33.566Z,2.10
2023-02-17T11:19:01.301Z,1.80
2023-02-17T11:21:30.342Z,2.13
2023-02-17T11:24:04.253Z,2.08
2023-02-17T11:26:33.938Z,1.95
2023-02-17T11:29:11.704Z,1.98
2023-02-17T11:31:59.233Z,1.95
2023-02-17T11:34:29.221Z,2.00
2023-02-17T11:37:01.337Z,1.77
2023-02-17T11:39:28.626Z,1.60
2023-02-17T11:41:55.765Z,1.90
2023-02-17T11:48:32.976Z,1.48
2023-02-17T11:51:21.617Z,1.45
2023-02-17T11:53:52.200Z,1.40
2023-02-17T11:56:30.297Z,1.50
2023-02-17T11:59:15.735Z,1.27
2023-02-17T12:01:51.691Z,1.30
2023-02-17T12:04:26.544Z,1.48
2023-02-17T12:07:02.965Z,1.70
2023-02-17T12:09:38.880Z,1.55
2023-02-17T12:12:24.847Z,1.30
2023-02-17T12:14:51.805Z,1.60
2023-02-17T12:17:26.354Z,1.60
2023-02-17T12:20:02.475Z,1.40
2023-02-17T12:22:33.583Z,1.40
2023-02-17T12:25:10.004Z,1.58
2023-02-17T12:27:44.825Z,1.60
2023-02-17T12:30:30.963Z,1.40
2023-02-17T12:33:10.686Z,1.50
2023-02-17T12:35:46.572Z,1.33
2023-02-17T12:38:17.855Z,1.30
2023-02-17T12:40:44.922Z,1.25
2023-02-17T12:43:23.542Z,1.02
2023-02-17T12:45:52.068Z,1.23
2023-02-17T12:48:24.769Z,1.10
2023-02-17T12:51:05.242Z,1.05
2023-02-17T12:53:40.746Z,1.20
2023-02-17T12:56:20.970Z,1.30
2023-02-17T12:58:50.352Z,1.20
2023-02-17T13:01:19.819Z,1.25
2023-02-17T13:03:46.917Z,1.10
2023-02-17T13:06:30.316Z,1.25
2023-02-17T13:08:59.663Z,1.37
2023-02-17T13:11:33.437Z,1.40
2023-02-17T13:14:15.115Z,1.60
2023-02-17T13:16:46.854Z,1.30
2023-02-17T13:19:16.099Z,1.60
2023-02-17T13:21:54.629Z,1.10
2023-02-17T13:24:36.234Z,1.30
2023-02-17T13:27:22.178Z,1.40
2023-02-17T13:30:09.939Z,1.20
2023-02-17T13:32:39.008Z,1.00
2023-02-17T13:35:06.086Z,1.00
2023-02-17T13:37:35.353Z,1.00
2023-02-17T13:40:03.152Z,1.00
2023-02-17T13:42:35.186Z,0.88
2023-02-17T13:45:12.443Z,0.82
2023-02-17T13:47:41.610Z,0.97
2023-02-17T13:50:27.884Z,1.00
2023-02-17T13:52:55.367Z,1.40
2023-02-17T13:55:24.048Z,1.33
2023-02-17T13:57:57.239Z,1.20
2023-02-17T14:00:25.609Z,1.20
2023-02-17T14:02:54.311Z,1.30
2023-02-17T14:05:21.343Z,1.70
2023-02-17T14:07:48.930Z,1.23
2023-02-17T14:10:18.975Z,1.80
2023-02-17T14:12:48.665Z,1.70
2023-02-17T14:15:17.042Z,4.95
2023-02-17T14:17:44.707Z,6.95
2023-02-17T14:20:30.265Z,5.93
2023-02-17T14:23:06.157Z,4.82
2023-02-17T14:25:37.368Z,4.97
2023-02-17T14:28:04.823Z,3.97
2023-02-17T14:30:34.351Z,3.72
